Pagina principale
METAR-TAF:

METAR-TAF

Aeroporti :

Aeroporto di Kangerlussuaq

Kangerlussuaq, Groenlandia

latitudine: 67-01N, longitudine: 050-42W, altezza: 50 m

Osservazione

Il bollettino è stato emesso 1 ora e 5 minuti fa, alle 16:50 UTC
Vento 1 kt da direzioni variabili
Temperature -4°C
Umidità 54%
Pressione 1020 hPa
Visibilità 10 km o più

METAR: BGSF 141650Z AUTO VRB01KT 9999NDV NCD M04/M12 Q1020

Ora: 15:55 (17:55 UTC)

Previsione

Il bollettino è stato emesso 58 minuti fa, alle 16:57 UTC
Previsione valida dal 14 alle 18 UTC al 15 alle 24 UTC
Vento 8 kt da direzioni variabili
Visibilità 10 km o più
Poco nuvoloso ad un'altezza di 20000 ft
Evoluzione graduale
dal 15 alle 22 UTC al 15 alle 24 UTC
Poco nuvoloso ad un'altezza di 3000 ft
Nuvoloso ad un'altezza di 5000 ft

TAF: BGSF 141657Z 1418/1524 VRB08KT 9999 FEW200 BECMG 1522/1524 FEW030 BKN050

Osservazioni e previsioni meteorologiche di più di 4000 aeroporti (messaggi METAR e TAF).

Le stazioni disponibili sono rappresentate dai dischi gialli e rossi sulla carta.

Puntare il mouse per vedere il nome della stazione.

Clicca sopra per visualizzare le osservazioni e previsioni meteorologiche.

Per cambiare la mappa : fare clic sui pulsanti verdi con una croce nera per ingrandire, il pulsante verde con un trattino per diminuire, o sulla freccia verde per le mappe adiacenti.


METAR-TAF: